createdAt,value
2023-06-04T00:09:21.822Z,1016.44
2023-06-04T00:19:22.395Z,1016.41
2023-06-04T00:29:22.935Z,1016.34
2023-06-04T00:39:23.508Z,1016.26
2023-06-04T00:49:24.075Z,1016.29
2023-06-04T00:59:24.611Z,1016.28
2023-06-04T01:09:25.174Z,1016.28
2023-06-04T01:19:25.728Z,1016.22
2023-06-04T01:29:26.284Z,1016.19
2023-06-04T01:39:26.844Z,1016.16
2023-06-04T01:49:27.410Z,1016.11
2023-06-04T01:59:27.963Z,1016.06
2023-06-04T02:09:28.501Z,1016.02
2023-06-04T02:19:28.985Z,1015.98
2023-06-04T02:29:29.502Z,1015.97
2023-06-04T02:39:30.024Z,1015.98
2023-06-04T02:49:30.524Z,1016.08
2023-06-04T02:59:31.011Z,1016.12
2023-06-04T03:09:31.503Z,1016.06
2023-06-04T03:19:32.062Z,1016.05
2023-06-04T03:29:32.908Z,1016.03
2023-06-04T03:39:33.379Z,1016.12
2023-06-04T03:49:33.941Z,1016.15
2023-06-04T03:59:34.450Z,1016.08
2023-06-04T04:09:35.026Z,1016.13
2023-06-04T04:19:35.558Z,1016.18
2023-06-04T04:29:36.099Z,1016.28
2023-06-04T04:39:36.617Z,1016.29
2023-06-04T04:49:44.127Z,1016.26
2023-06-04T04:59:37.625Z,1016.34
2023-06-04T05:09:38.118Z,1016.39
2023-06-04T05:19:38.620Z,1016.36
2023-06-04T05:29:39.136Z,1016.39
2023-06-04T05:39:39.636Z,1016.44
2023-06-04T05:49:40.144Z,1016.49
2023-06-04T05:59:40.650Z,1016.55
2023-06-04T06:09:41.146Z,1016.59
2023-06-04T06:19:41.665Z,1016.64
2023-06-04T06:29:42.163Z,1016.68
2023-06-04T06:39:42.658Z,1016.69
2023-06-04T06:49:43.158Z,1016.75
2023-06-04T06:59:43.659Z,1016.73
2023-06-04T07:09:44.185Z,1016.74
2023-06-04T07:19:44.684Z,1016.78
2023-06-04T07:29:45.176Z,1016.77
2023-06-04T07:39:45.675Z,1016.78
2023-06-04T07:49:58.463Z,1016.83
2023-06-04T07:59:47.604Z,1016.75
2023-06-04T08:09:47.112Z,1016.78
2023-06-04T08:19:47.592Z,1016.81
2023-06-04T08:29:48.094Z,1016.79
2023-06-04T08:39:48.653Z,1016.76
2023-06-04T08:49:49.178Z,1016.81
2023-06-04T08:59:49.705Z,1016.84
2023-06-04T09:09:57.579Z,1016.87
2023-06-04T09:19:52.048Z,1016.91
2023-06-04T09:29:51.594Z,1016.88
2023-06-04T09:39:52.058Z,1016.85
2023-06-04T09:49:52.557Z,1016.84
2023-06-04T09:59:53.033Z,1016.78
2023-06-04T10:09:53.528Z,1016.72
2023-06-04T10:19:54.070Z,1016.69
2023-06-04T10:29:54.579Z,1016.70
2023-06-04T10:39:55.085Z,1016.63
2023-06-04T10:50:02.595Z,1016.63
2023-06-04T10:59:56.087Z,1016.60
2023-06-04T11:09:56.595Z,1016.61
2023-06-04T11:19:57.170Z,1016.54
2023-06-04T11:29:57.683Z,1016.43
2023-06-04T11:39:58.190Z,1016.45
2023-06-04T11:49:58.725Z,1016.38
2023-06-04T11:59:59.218Z,1016.45
2023-06-04T12:09:59.777Z,1016.37
2023-06-04T12:20:00.300Z,1016.39
2023-06-04T12:30:00.825Z,1016.28
2023-06-04T12:40:01.330Z,1016.23
2023-06-04T12:50:01.833Z,1016.18
2023-06-04T13:00:02.303Z,1016.16
2023-06-04T13:10:02.809Z,1016.11
2023-06-04T13:20:03.319Z,1016.14
2023-06-04T13:30:03.935Z,1016.04
2023-06-04T13:40:04.393Z,1015.97
2023-06-04T13:50:04.909Z,1015.92
2023-06-04T14:00:05.407Z,1015.84
2023-06-04T14:10:05.902Z,1015.80
2023-06-04T14:20:06.428Z,1015.77
2023-06-04T14:30:06.954Z,1015.70
2023-06-04T14:40:07.450Z,1015.70
2023-06-04T14:50:07.947Z,1015.64
2023-06-04T15:00:08.530Z,1015.56
2023-06-04T15:10:08.981Z,1015.45
2023-06-04T15:20:09.495Z,1015.38
2023-06-04T15:30:10.007Z,1015.42
2023-06-04T15:40:10.512Z,1015.40
2023-06-04T15:50:11.009Z,1015.35
2023-06-04T16:00:11.532Z,1015.38
2023-06-04T16:10:12.042Z,1015.27
2023-06-04T16:20:12.536Z,1015.18
2023-06-04T16:30:13.071Z,1015.08
2023-06-04T16:40:13.600Z,1015.05
2023-06-04T16:50:22.118Z,1015.00
2023-06-04T17:00:26.294Z,1015.02
2023-06-04T17:10:16.471Z,1015.02
2023-06-04T17:20:15.969Z,1015.06
2023-06-04T17:30:16.469Z,1015.08
2023-06-04T17:40:16.992Z,1015.08
2023-06-04T17:50:17.500Z,1015.11
2023-06-04T18:00:18.014Z,1015.12
2023-06-04T18:10:18.512Z,1015.13
2023-06-04T18:20:19.004Z,1015.16
2023-06-04T18:30:19.519Z,1015.24
2023-06-04T18:40:20.010Z,1015.28
2023-06-04T18:50:20.510Z,1015.38
2023-06-04T19:00:21.015Z,1015.45
2023-06-04T19:10:21.514Z,1015.54
2023-06-04T19:20:22.019Z,1015.61
2023-06-04T19:30:22.541Z,1015.69
2023-06-04T19:40:23.029Z,1015.75
2023-06-04T19:50:23.534Z,1015.90
2023-06-04T20:00:24.042Z,1015.96
2023-06-04T20:10:24.548Z,1016.07
2023-06-04T20:20:25.108Z,1016.10
2023-06-04T20:30:25.691Z,1016.05
2023-06-04T20:40:26.276Z,1016.14
2023-06-04T20:50:26.854Z,1016.17
2023-06-04T21:00:27.426Z,1016.23
2023-06-04T21:10:27.983Z,1016.22
2023-06-04T21:20:28.530Z,1016.25
2023-06-04T21:30:29.087Z,1016.32
2023-06-04T21:40:29.649Z,1016.36
2023-06-04T21:50:30.205Z,1016.42
2023-06-04T22:00:30.763Z,1016.44
2023-06-04T22:10:31.320Z,1016.45
2023-06-04T22:20:31.867Z,1016.40
2023-06-04T22:30:32.409Z,1016.41
2023-06-04T22:40:32.973Z,1016.44
2023-06-04T22:50:33.525Z,1016.44
2023-06-04T23:00:41.120Z,1016.40
2023-06-04T23:10:34.632Z,1016.41
2023-06-04T23:20:35.183Z,1016.45
2023-06-04T23:30:35.730Z,1016.51
2023-06-04T23:40:36.282Z,1016.53
2023-06-04T23:50:36.857Z,1016.56
